Time;durP1;ratioP1;P1;durP2;ratioP2;P2;SDS_P1;SDS_P2;PMS_P1;PMS_P2;Temp;Humidity;BMP_temperature;BMP_pressure;BME280_temperature;BME280_humidity;BME280_pressure;Samples;Min_cycle;Max_cycle;Signal;HPM_P1;HPM_P2
2023/03/05 00:02:05;;;;;;;12.45;2.03;;;3.00;99.90;;;;;;5065074;28;20603;-61
2023/03/05 00:04:31;;;;;;;16.83;2.40;;;3.00;99.90;;;;;;5063841;28;20041;-61
2023/03/05 00:06:57;;;;;;;11.48;2.17;;;3.00;99.90;;;;;;5064187;28;20105;-61
2023/03/05 00:09:22;;;;;;;7.90;1.75;;;3.00;99.90;;;;;;5062694;28;20483;-61
2023/03/05 00:11:48;;;;;;;11.35;2.30;;;2.90;99.90;;;;;;5063506;28;20048;-60
2023/03/05 00:14:13;;;;;;;5.15;1.40;;;2.90;99.90;;;;;;5074335;28;20491;-61
2023/03/05 00:16:39;;;;;;;8.18;1.42;;;2.90;99.90;;;;;;5064341;28;20040;-61
2023/03/05 00:19:05;;;;;;;6.93;1.48;;;2.90;99.90;;;;;;5063775;28;20044;-61
2023/03/05 00:21:37;;;;;;;7.18;1.77;;;2.90;99.90;;;;;;5072594;28;20035;-61
2023/03/05 00:24:05;;;;;;;6.00;1.63;;;2.90;99.90;;;;;;5080068;28;20470;-61
2023/03/05 00:26:34;;;;;;;7.57;1.33;;;2.90;99.90;;;;;;5081377;28;20044;-61
2023/03/05 00:29:00;;;;;;;8.90;1.48;;;2.80;99.90;;;;;;5058746;28;20048;-61
2023/03/05 00:31:29;;;;;;;8.02;1.73;;;2.80;99.90;;;;;;5069418;28;20040;-61
2023/03/05 00:34:07;;;;;;;9.38;1.40;;;2.80;99.90;;;;;;5071576;28;20891;-62
2023/03/05 00:36:33;;;;;;;8.68;1.85;;;2.80;99.90;;;;;;5071283;28;20048;-60
2023/03/05 00:38:59;;;;;;;6.35;1.40;;;2.80;99.90;;;;;;5067352;28;20631;-60
2023/03/05 00:41:25;;;;;;;11.27;2.05;;;2.80;99.90;;;;;;5070588;28;20036;-61
2023/03/05 00:43:50;;;;;;;9.15;1.60;;;2.70;99.90;;;;;;5067181;28;20127;-61
2023/03/05 00:46:16;;;;;;;8.50;1.98;;;2.70;99.90;;;;;;5069561;28;20085;-61
2023/03/05 00:48:42;;;;;;;12.77;2.00;;;2.70;99.90;;;;;;5067739;28;20040;-61
2023/03/05 00:51:08;;;;;;;7.60;1.70;;;2.70;99.90;;;;;;5070294;28;20039;-60
2023/03/05 00:53:33;;;;;;;9.52;1.92;;;2.80;99.90;;;;;;5068821;28;20108;-60
2023/03/05 00:55:59;;;;;;;11.63;1.75;;;2.80;99.90;;;;;;5061399;28;20056;-59
2023/03/05 00:58:25;;;;;;;11.90;2.08;;;2.80;99.90;;;;;;5057521;28;20667;-60
2023/03/05 01:00:50;;;;;;;6.30;1.55;;;2.80;99.90;;;;;;5070822;28;20067;-59
2023/03/05 01:03:17;;;;;;;10.07;1.60;;;2.80;99.90;;;;;;5070126;28;20534;-59
2023/03/05 01:05:43;;;;;;;10.23;1.63;;;2.80;99.90;;;;;;5071892;28;20047;-59
2023/03/05 01:08:08;;;;;;;14.05;1.98;;;2.80;99.90;;;;;;5066964;28;20052;-59
2023/03/05 01:10:34;;;;;;;11.00;1.88;;;2.80;99.90;;;;;;5069521;28;20048;-59
2023/03/05 01:13:00;;;;;;;6.10;1.52;;;2.80;99.90;;;;;;5066253;28;20816;-59
2023/03/05 01:15:26;;;;;;;9.57;1.80;;;2.80;99.90;;;;;;5071388;28;20064;-59
2023/03/05 01:17:51;;;;;;;7.38;1.20;;;2.80;99.90;;;;;;5071409;28;20086;-59
2023/03/05 01:20:19;;;;;;;9.65;1.70;;;2.80;99.90;;;;;;5068388;28;20126;-58
2023/03/05 01:22:44;;;;;;;15.52;1.85;;;2.80;99.90;;;;;;5071522;28;20062;-59
2023/03/05 01:25:12;;;;;;;10.38;1.88;;;2.80;99.90;;;;;;5066069;28;20506;-59
2023/03/05 01:27:38;;;;;;;8.43;1.45;;;2.80;99.90;;;;;;5071357;28;20090;-59
2023/03/05 01:30:04;;;;;;;7.45;1.58;;;2.80;99.90;;;;;;5066242;28;20779;-59
2023/03/05 01:32:30;;;;;;;9.60;1.77;;;2.80;99.90;;;;;;5070182;28;20059;-58
2023/03/05 01:34:55;;;;;;;9.65;1.77;;;2.80;99.90;;;;;;5070686;28;20039;-58
2023/03/05 01:37:21;;;;;;;9.35;1.63;;;2.80;99.90;;;;;;5070093;28;20060;-59
2023/03/05 01:39:46;;;;;;;9.38;1.55;;;2.80;99.90;;;;;;5063653;28;20051;-60
2023/03/05 01:42:12;;;;;;;5.82;1.35;;;2.80;99.90;;;;;;5059371;28;20055;-59
2023/03/05 01:44:37;;;;;;;9.65;1.80;;;2.80;99.90;;;;;;5070511;28;20044;-59
2023/03/05 01:47:03;;;;;;;8.48;1.70;;;2.80;99.90;;;;;;5071834;28;20557;-59
2023/03/05 01:49:38;;;;;;;7.75;1.67;;;2.80;99.90;;;;;;5066984;28;20502;-59
2023/03/05 01:52:16;;;;;;;8.05;1.95;;;2.80;99.90;;;;;;5071097;28;20130;-59
2023/03/05 01:54:50;;;;;;;6.68;1.60;;;2.70;99.90;;;;;;5067752;28;20048;-58
2023/03/05 01:57:19;;;;;;;;;;;2.70;99.90;;;;;;5069230;28;20052;-59
2023/03/05 01:59:48;;;;;;;6.70;1.50;;;2.60;99.90;;;;;;5067770;28;19927;-59
2023/03/05 02:02:15;;;;;;;12.85;1.90;;;2.60;99.90;;;;;;5070844;28;20473;-59
2023/03/05 02:04:56;;;;;;;8.05;1.95;;;2.50;99.90;;;;;;5066007;28;20403;-59
2023/03/05 02:07:23;;;;;;;7.05;1.50;;;2.50;99.90;;;;;;5061176;28;20059;-58
2023/03/05 02:09:48;;;;;;;10.02;2.15;;;2.50;99.90;;;;;;5061049;28;20127;-59
2023/03/05 02:12:15;;;;;;;9.35;1.80;;;2.40;99.90;;;;;;5063367;28;20115;-58
2023/03/05 02:14:44;;;;;;;11.95;2.08;;;2.40;99.90;;;;;;5074772;28;20070;-59
2023/03/05 02:17:10;;;;;;;9.00;1.48;;;2.40;99.90;;;;;;5066311;28;20094;-59
2023/03/05 02:19:53;;;;;;;8.15;1.83;;;2.40;99.90;;;;;;5080600;28;20044;-58
2023/03/05 02:22:21;;;;;;;10.32;1.92;;;2.40;99.90;;;;;;5086779;28;20044;-59
2023/03/05 02:24:47;;;;;;;13.77;2.00;;;2.40;99.90;;;;;;5083992;28;20040;-58
2023/03/05 02:27:14;;;;;;;6.25;1.55;;;2.40;99.90;;;;;;5102061;28;20048;-59
2023/03/05 02:29:45;;;;;;;10.27;2.22;;;2.40;99.90;;;;;;5073640;28;20040;-58
2023/03/05 02:32:12;;;;;;;11.68;2.03;;;2.40;99.90;;;;;;5066206;28;20045;-59
2023/03/05 02:34:38;;;;;;;15.20;2.55;;;2.40;99.90;;;;;;5065538;28;20130;-58
2023/03/05 02:37:07;;;;;;;8.15;1.70;;;2.40;99.90;;;;;;5066026;28;20090;-58
2023/03/05 02:39:33;;;;;;;8.43;1.70;;;2.30;99.90;;;;;;5071779;28;20047;-58
2023/03/05 02:41:59;;;;;;;9.95;1.63;;;2.30;99.90;;;;;;5085557;28;20032;-58
2023/03/05 02:44:24;;;;;;;15.55;2.00;;;2.20;99.90;;;;;;5077134;28;20048;-59
2023/03/05 02:46:50;;;;;;;11.68;2.50;;;2.20;99.90;;;;;;5065885;28;20044;-58
2023/03/05 02:49:16;;;;;;;9.85;2.03;;;2.10;99.90;;;;;;5076709;28;20047;-60
2023/03/05 02:51:41;;;;;;;8.63;1.85;;;2.10;99.90;;;;;;5085149;28;20143;-60
2023/03/05 02:54:07;;;;;;;8.13;1.85;;;2.10;99.90;;;;;;5067983;28;20036;-60
2023/03/05 02:56:32;;;;;;;11.18;2.22;;;2.10;99.90;;;;;;5065574;28;20066;-61
2023/03/05 02:58:58;;;;;;;12.10;2.40;;;2.10;99.90;;;;;;5065811;28;20362;-60
2023/03/05 03:01:26;;;;;;;14.65;2.25;;;2.20;99.90;;;;;;5065125;28;20044;-61
2023/03/05 03:03:52;;;;;;;13.50;2.10;;;2.20;99.90;;;;;;5073308;28;20113;-61
2023/03/05 03:06:18;;;;;;;12.88;2.35;;;2.20;99.90;;;;;;5084114;28;20043;-60
2023/03/05 03:08:44;;;;;;;14.05;1.90;;;2.20;99.90;;;;;;5068964;28;20040;-61
2023/03/05 03:11:13;;;;;;;8.40;1.95;;;2.30;99.90;;;;;;5064510;28;20051;-60
2023/03/05 03:13:39;;;;;;;5.20;1.63;;;2.30;99.90;;;;;;5065229;28;20809;-61
2023/03/05 03:16:08;;;;;;;10.38;2.20;;;2.30;99.90;;;;;;5065484;28;20439;-60
2023/03/05 03:18:34;;;;;;;10.98;2.20;;;2.30;99.90;;;;;;5065124;28;20040;-61
2023/03/05 03:20:59;;;;;;;10.45;2.25;;;2.30;99.90;;;;;;5065376;28;20564;-60
2023/03/05 03:23:26;;;;;;;8.52;1.63;;;2.30;99.90;;;;;;5064976;28;20121;-60
2023/03/05 03:25:52;;;;;;;10.43;1.80;;;2.40;99.90;;;;;;5083184;28;20052;-60
2023/03/05 03:28:17;;;;;;;12.77;2.05;;;2.40;99.90;;;;;;5081969;28;20508;-61
2023/03/05 03:30:43;;;;;;;10.07;1.73;;;2.40;99.90;;;;;;5064349;28;20044;-61
2023/03/05 03:33:09;;;;;;;9.73;2.10;;;2.40;99.90;;;;;;5064375;28;20425;-57
2023/03/05 03:35:35;;;;;;;8.10;1.83;;;2.50;99.90;;;;;;5064921;28;20090;-57
2023/03/05 03:38:00;;;;;;;14.60;1.88;;;2.50;99.90;;;;;;5064670;28;20044;-57
2023/03/05 03:40:26;;;;;;;14.65;1.88;;;2.50;99.90;;;;;;5063280;28;20274;-57
2023/03/05 03:42:52;;;;;;;11.75;1.95;;;2.40;99.90;;;;;;5071988;28;20045;-57
2023/03/05 03:45:20;;;;;;;8.45;1.65;;;2.40;99.90;;;;;;5063175;28;20048;-58
2023/03/05 03:47:47;;;;;;;13.48;1.80;;;2.40;99.90;;;;;;5064687;28;20052;-58
2023/03/05 03:50:13;;;;;;;15.35;2.13;;;2.40;99.90;;;;;;5064757;28;20044;-58
2023/03/05 03:52:38;;;;;;;13.68;1.92;;;2.30;99.90;;;;;;5080285;28;20441;-58
2023/03/05 03:55:04;;;;;;;9.15;1.80;;;2.30;99.90;;;;;;5062600;28;20036;-57
2023/03/05 03:57:32;;;;;;;9.77;2.00;;;2.30;99.90;;;;;;5063402;28;20443;-58
2023/03/05 03:59:58;;;;;;;12.00;1.98;;;2.30;99.90;;;;;;5064029;28;20055;-58
2023/03/05 04:02:24;;;;;;;12.63;1.80;;;2.20;99.90;;;;;;5063774;28;20465;-58
2023/03/05 04:04:50;;;;;;;11.38;2.20;;;2.10;99.90;;;;;;5062302;28;20040;-58
2023/03/05 04:07:15;;;;;;;7.53;2.10;;;2.10;99.90;;;;;;5064150;28;20039;-58
2023/03/05 04:09:41;;;;;;;9.60;2.05;;;2.10;99.90;;;;;;5061196;28;20062;-58
2023/03/05 04:12:07;;;;;;;9.10;2.20;;;2.10;99.90;;;;;;5063930;28;20217;-58
2023/03/05 04:14:33;;;;;;;7.35;2.15;;;2.20;99.90;;;;;;5068868;28;20062;-57
2023/03/05 04:16:58;;;;;;;11.45;2.40;;;2.20;99.90;;;;;;5063567;28;20037;-58
2023/03/05 04:19:24;;;;;;;8.10;1.95;;;2.20;99.90;;;;;;5063937;28;20153;-58
2023/03/05 04:21:50;;;;;;;10.70;2.00;;;2.20;99.90;;;;;;5063851;28;20036;-57
2023/03/05 04:24:15;;;;;;;10.70;1.58;;;2.20;99.90;;;;;;5063691;28;20566;-57
2023/03/05 04:26:41;;;;;;;8.18;1.48;;;2.20;99.90;;;;;;5063881;28;20051;-58
2023/03/05 04:29:06;;;;;;;6.47;1.42;;;2.20;99.90;;;;;;5063953;28;20526;-58
2023/03/05 04:31:32;;;;;;;9.20;1.50;;;2.20;99.90;;;;;;5063223;28;20063;-58
2023/03/05 04:33:58;;;;;;;7.47;1.65;;;2.20;99.90;;;;;;5083647;28;20040;-58
2023/03/05 04:36:24;;;;;;;5.22;1.27;;;2.20;99.90;;;;;;5063009;28;20050;-58
2023/03/05 04:38:49;;;;;;;6.93;1.50;;;2.10;99.90;;;;;;5063845;28;20825;-58
2023/03/05 04:41:15;;;;;;;5.03;1.17;;;2.10;99.90;;;;;;5083057;28;20213;-58
2023/03/05 04:43:40;;;;;;;7.60;1.55;;;2.00;99.90;;;;;;5079933;28;20048;-57
2023/03/05 04:46:06;;;;;;;8.43;1.50;;;2.00;99.90;;;;;;5063437;28;20056;-57
2023/03/05 04:48:31;;;;;;;11.80;2.00;;;1.90;99.90;;;;;;5067333;28;20051;-57
2023/03/05 04:50:57;;;;;;;11.50;1.67;;;1.90;99.90;;;;;;5083565;28;20044;-58
2023/03/05 04:53:23;;;;;;;10.55;1.90;;;1.90;99.90;;;;;;5082513;28;20126;-58
2023/03/05 04:55:53;;;;;;;7.22;2.08;;;1.90;99.90;;;;;;5062152;28;20454;-58
2023/03/05 04:58:19;;;;;;;8.52;1.88;;;1.90;99.90;;;;;;5062760;28;20547;-56
2023/03/05 05:00:44;;;;;;;8.25;2.00;;;1.90;99.90;;;;;;5063268;28;20063;-58
2023/03/05 05:03:10;;;;;;;8.07;1.67;;;1.90;99.90;;;;;;5062555;28;20168;-57
2023/03/05 05:05:36;;;;;;;11.63;1.90;;;1.90;99.90;;;;;;5061554;28;20055;-58
2023/03/05 05:08:02;;;;;;;8.10;1.95;;;1.90;99.90;;;;;;5063073;28;20190;-58
2023/03/05 05:10:27;;;;;;;11.85;1.90;;;1.90;99.90;;;;;;5061452;28;20033;-58
2023/03/05 05:12:53;;;;;;;10.30;2.17;;;1.90;99.90;;;;;;5061961;28;20043;-58
2023/03/05 05:15:19;;;;;;;12.63;1.80;;;1.90;99.90;;;;;;5063169;28;20047;-58
2023/03/05 05:17:45;;;;;;;7.15;2.00;;;1.90;99.90;;;;;;5062809;28;20047;-59
2023/03/05 05:20:13;;;;;;;9.48;2.10;;;1.90;99.90;;;;;;5081160;28;20040;-58
2023/03/05 05:22:38;;;;;;;9.82;2.00;;;1.90;99.90;;;;;;5080400;28;20074;-58
2023/03/05 05:25:04;;;;;;;8.10;1.75;;;1.90;99.90;;;;;;5061438;28;20068;-58
2023/03/05 05:27:30;;;;;;;11.40;1.90;;;1.90;99.90;;;;;;5062787;28;20095;-57
2023/03/05 05:29:56;;;;;;;11.02;2.47;;;1.90;99.90;;;;;;5074233;28;20068;-59
2023/03/05 05:32:23;;;;;;;15.25;2.35;;;2.00;99.90;;;;;;5082931;28;20716;-59
2023/03/05 05:34:57;;;;;;;8.90;2.33;;;2.00;99.90;;;;;;5067039;28;20036;-59
2023/03/05 05:37:23;;;;;;;5.83;1.63;;;2.10;99.90;;;;;;5063168;28;20041;-58
2023/03/05 05:39:49;;;;;;;11.65;2.17;;;2.10;99.90;;;;;;5061749;28;20041;-60
2023/03/05 05:42:20;;;;;;;12.45;2.08;;;2.10;99.90;;;;;;5062335;28;20037;-59
2023/03/05 05:44:46;;;;;;;8.82;1.80;;;2.10;99.90;;;;;;5063036;28;20040;-58
2023/03/05 05:47:13;;;;;;;9.13;1.48;;;2.10;99.90;;;;;;5063275;28;20487;-60
2023/03/05 05:49:39;;;;;;;5.60;1.20;;;2.10;99.90;;;;;;5065641;28;20125;-57
2023/03/05 05:52:05;;;;;;;4.05;1.10;;;2.20;99.90;;;;;;5066999;28;20728;-59
2023/03/05 05:54:30;;;;;;;4.85;1.15;;;2.20;99.90;;;;;;5065270;28;20036;-58
2023/03/05 05:56:56;;;;;;;6.22;1.38;;;2.20;99.90;;;;;;5067088;28;20070;-59
2023/03/05 05:59:22;;;;;;;6.95;1.55;;;2.10;99.90;;;;;;5067170;28;20051;-59
2023/03/05 06:01:47;;;;;;;7.07;1.33;;;2.10;99.90;;;;;;5066673;28;20047;-59
2023/03/05 06:04:13;;;;;;;8.45;1.35;;;2.10;99.90;;;;;;5076492;28;20584;-60
2023/03/05 06:06:38;;;;;;;7.03;1.27;;;2.10;99.90;;;;;;5087039;28;20093;-59
2023/03/05 06:09:04;;;;;;;7.32;1.00;;;2.10;99.90;;;;;;5079963;28;20055;-59
2023/03/05 06:11:30;;;;;;;10.10;1.20;;;2.00;99.90;;;;;;5064538;28;20055;-59
2023/03/05 06:13:56;;;;;;;5.25;1.30;;;2.00;99.90;;;;;;5064693;28;20040;-60
2023/03/05 06:16:23;;;;;;;11.70;1.50;;;2.00;99.90;;;;;;5066200;28;20420;-59
2023/03/05 06:18:52;;;;;;;7.70;1.35;;;2.00;99.90;;;;;;5065621;28;20033;-58
2023/03/05 06:21:19;;;;;;;6.05;1.20;;;1.90;99.90;;;;;;5065668;28;20044;-58
2023/03/05 06:23:46;;;;;;;8.82;1.08;;;1.90;99.90;;;;;;5064370;28;20040;-59
2023/03/05 06:26:15;;;;;;;7.53;1.50;;;1.90;99.90;;;;;;5065692;28;20671;-59
2023/03/05 06:28:40;;;;;;;11.38;1.10;;;1.90;99.90;;;;;;5065867;28;20040;-58
2023/03/05 06:31:15;;;;;;;6.40;1.30;;;1.80;99.90;;;;;;5066480;28;20158;-59
2023/03/05 06:33:41;;;;;;;5.57;1.33;;;1.80;99.90;;;;;;5066235;28;20125;-60
2023/03/05 06:36:12;;;;;;;8.23;1.10;;;1.80;99.90;;;;;;5066204;28;20443;-58
2023/03/05 06:38:37;;;;;;;7.28;1.40;;;1.80;99.90;;;;;;5064372;28;20036;-60
2023/03/05 06:41:08;;;;;;;3.72;1.10;;;1.80;99.90;;;;;;5064023;28;20384;-60
2023/03/05 06:43:34;;;;;;;9.82;1.10;;;1.70;99.90;;;;;;5066325;28;20083;-59
2023/03/05 06:46:05;;;;;;;7.18;1.35;;;1.70;99.90;;;;;;5066003;28;20212;-59
2023/03/05 06:48:31;;;;;;;7.65;1.27;;;1.70;99.90;;;;;;5065343;28;20081;-59
2023/03/05 06:50:56;;;;;;;5.85;1.20;;;1.70;99.90;;;;;;5065629;28;20128;-58
2023/03/05 06:53:23;;;;;;;7.90;1.85;;;1.70;99.90;;;;;;5064596;28;20129;-59
2023/03/05 06:55:49;;;;;;;3.22;1.02;;;1.70;99.90;;;;;;5075042;28;20032;-59
2023/03/05 06:58:15;;;;;;;7.55;1.30;;;1.70;99.90;;;;;;5085469;28;20052;-59
2023/03/05 07:00:42;;;;;;;6.80;1.27;;;1.70;99.90;;;;;;5066568;28;20437;-60
2023/03/05 07:03:10;;;;;;;9.90;1.42;;;1.80;99.90;;;;;;5065768;28;20052;-59
2023/03/05 07:05:40;;;;;;;7.57;1.45;;;1.90;99.90;;;;;;5065508;28;20056;-59
2023/03/05 07:08:06;;;;;;;13.57;2.03;;;1.90;99.90;;;;;;5063779;28;20044;-59
2023/03/05 07:10:35;;;;;;;5.78;1.27;;;2.00;99.90;;;;;;5071678;28;20040;-59
2023/03/05 07:13:01;;;;;;;10.57;1.40;;;2.00;99.90;;;;;;5078904;28;20040;-59
2023/03/05 07:15:26;;;;;;;7.05;1.58;;;2.10;99.90;;;;;;5067996;28;21011;-59
2023/03/05 07:17:52;;;;;;;5.65;1.58;;;2.20;99.90;;;;;;5065558;28;20516;-59
2023/03/05 07:20:18;;;;;;;8.05;1.63;;;2.20;99.90;;;;;;5063873;28;20386;-59
2023/03/05 07:22:43;;;;;;;10.23;1.60;;;2.30;99.90;;;;;;5064602;28;20036;-59
2023/03/05 07:25:09;;;;;;;12.45;1.70;;;2.40;99.90;;;;;;5075930;28;20046;-60
2023/03/05 07:27:38;;;;;;;6.38;1.65;;;2.50;99.90;;;;;;5084860;28;20158;-59
2023/03/05 07:30:04;;;;;;;10.40;1.65;;;2.60;99.90;;;;;;5084382;28;20071;-59
2023/03/05 07:32:30;;;;;;;10.32;1.75;;;2.70;99.90;;;;;;5083599;28;20043;-59
2023/03/05 07:34:56;;;;;;;10.57;1.67;;;2.90;99.90;;;;;;5068179;28;20040;-59
2023/03/05 07:37:21;;;;;;;8.75;1.65;;;3.00;99.90;;;;;;5064622;28;20082;-58
2023/03/05 07:39:47;;;;;;;6.72;1.50;;;3.00;99.90;;;;;;5064559;28;20066;-60
2023/03/05 07:42:12;;;;;;;9.57;1.90;;;3.10;99.90;;;;;;5064059;28;20040;-60
2023/03/05 07:44:38;;;;;;;13.77;1.70;;;3.10;99.90;;;;;;5073029;28;20351;-60
2023/03/05 07:47:04;;;;;;;10.52;1.65;;;3.20;99.90;;;;;;5085083;28;20058;-59
2023/03/05 07:49:30;;;;;;;12.30;1.60;;;3.30;99.90;;;;;;5071526;28;20110;-59
2023/03/05 07:51:55;;;;;;;9.00;1.30;;;3.50;99.90;;;;;;5080079;28;20040;-59
2023/03/05 07:54:21;;;;;;;17.13;2.97;;;3.60;99.90;;;;;;5063098;28;20075;-60
2023/03/05 07:56:47;;;;;;;15.07;1.77;;;3.80;99.90;;;;;;5063821;28;20501;-59
2023/03/05 07:59:13;;;;;;;9.55;1.38;;;4.00;99.90;;;;;;5069112;28;20040;-60
2023/03/05 08:01:38;;;;;;;12.30;1.80;;;4.10;99.90;;;;;;5084624;28;20097;-59
2023/03/05 08:04:05;;;;;;;5.47;1.27;;;4.20;99.90;;;;;;5075243;28;20035;-60
2023/03/05 08:06:31;;;;;;;8.73;1.40;;;4.40;99.90;;;;;;5064591;28;20120;-60
2023/03/05 08:08:58;;;;;;;8.50;1.70;;;4.70;99.90;;;;;;5062792;28;20148;-60
2023/03/05 08:11:23;;;;;;;13.93;1.52;;;5.00;99.90;;;;;;5076228;28;20055;-60
2023/03/05 08:13:49;;;;;;;10.57;1.50;;;5.20;99.90;;;;;;5081633;28;20047;-60
2023/03/05 08:16:18;;;;;;;6.18;1.30;;;5.20;99.90;;;;;;5083884;28;20047;-60
2023/03/05 08:18:44;;;;;;;7.55;1.63;;;5.30;99.90;;;;;;5081715;28;20127;-60
2023/03/05 08:21:22;;;;;;;7.63;1.60;;;5.40;99.90;;;;;;5083258;28;20040;-60
2023/03/05 08:23:48;;;;;;;7.60;1.58;;;5.50;99.90;;;;;;5078097;28;20078;-59
2023/03/05 08:26:15;;;;;;;7.30;1.05;;;5.60;99.90;;;;;;5080551;28;20546;-59
2023/03/05 08:28:41;;;;;;;7.60;1.50;;;5.60;99.90;;;;;;5082464;28;20121;-61
2023/03/05 08:31:11;;;;;;;6.32;1.70;;;5.60;99.90;;;;;;5082998;28;20090;-60
2023/03/05 08:33:37;;;;;;;7.07;1.40;;;5.60;99.90;;;;;;5078912;28;20606;-60
2023/03/05 08:36:03;;;;;;;11.52;1.55;;;5.60;99.90;;;;;;5080621;28;20508;-60
2023/03/05 08:38:29;;;;;;;8.13;1.50;;;5.50;99.90;;;;;;5080193;28;20036;-61
2023/03/05 08:40:54;;;;;;;13.52;1.58;;;5.50;99.90;;;;;;5082398;28;20046;-60
2023/03/05 08:43:20;;;;;;;10.07;1.33;;;5.50;99.90;;;;;;5082128;28;20047;-61
2023/03/05 08:45:46;;;;;;;11.07;1.77;;;5.70;99.90;;;;;;5081436;28;20066;-60
2023/03/05 08:48:12;;;;;;;10.77;1.77;;;5.70;99.90;;;;;;5081038;28;20056;-60
2023/03/05 08:50:37;;;;;;;13.27;1.70;;;5.50;99.90;;;;;;5081627;28;20043;-61
2023/03/05 08:53:03;;;;;;;11.10;1.70;;;5.60;99.90;;;;;;5080906;28;20032;-61
2023/03/05 08:55:28;;;;;;;9.68;1.67;;;5.60;99.90;;;;;;5078507;28;20823;-61
2023/03/05 08:57:54;;;;;;;9.98;1.80;;;5.80;99.90;;;;;;5081420;28;20051;-60
2023/03/05 09:00:20;;;;;;;10.60;2.58;;;5.80;99.90;;;;;;5079381;28;20056;-61
2023/03/05 09:02:45;;;;;;;11.45;1.80;;;6.00;99.90;;;;;;5081595;28;20546;-62
2023/03/05 09:05:11;;;;;;;9.95;1.30;;;6.00;99.90;;;;;;5079446;28;20044;-61
2023/03/05 09:07:37;;;;;;;13.38;1.80;;;6.10;99.90;;;;;;5082588;28;20701;-61
2023/03/05 09:10:04;;;;;;;14.15;1.58;;;5.90;99.90;;;;;;5078919;28;20048;-61
2023/03/05 09:12:30;;;;;;;10.85;1.95;;;6.00;99.90;;;;;;5081135;28;20028;-60
2023/03/05 09:14:56;;;;;;;9.25;1.60;;;6.10;99.90;;;;;;5081405;28;20047;-60
2023/03/05 09:17:22;;;;;;;13.88;1.80;;;6.20;99.90;;;;;;5080388;28;20044;-61
2023/03/05 09:19:48;;;;;;;9.57;2.00;;;6.20;99.90;;;;;;5078935;28;20036;-61
2023/03/05 09:22:14;;;;;;;9.27;1.58;;;6.20;99.90;;;;;;5052263;28;20563;-60
2023/03/05 09:24:39;;;;;;;8.68;1.40;;;6.20;99.90;;;;;;5058212;28;20048;-61
2023/03/05 09:27:05;;;;;;;9.20;1.70;;;6.20;99.90;;;;;;5066412;28;20288;-60
2023/03/05 09:29:31;;;;;;;8.43;1.50;;;6.30;99.90;;;;;;5071629;28;20144;-60
2023/03/05 09:31:56;;;;;;;10.25;1.65;;;6.40;99.90;;;;;;5068991;28;20079;-60
2023/03/05 09:34:22;;;;;;;8.48;1.60;;;6.50;99.90;;;;;;5070891;28;20043;-61
2023/03/05 09:36:48;;;;;;;14.10;1.70;;;6.60;99.90;;;;;;5065708;28;20030;-61
2023/03/05 09:39:15;;;;;;;7.47;1.98;;;6.70;99.90;;;;;;5066043;28;20059;-59
2023/03/05 09:42:08;;;;;;;8.90;1.58;;;6.70;99.90;;;;;;5077749;28;20461;-60
2023/03/05 09:45:16;;;;;;;8.05;1.65;;;6.50;99.90;;;;;;5067030;28;20037;-59
2023/03/05 09:47:50;;;;;;;5.05;1.08;;;6.10;99.90;;;;;;5064798;28;20576;-59
2023/03/05 09:50:38;;;;;;;4.65;0.93;;;5.90;99.90;;;;;;5069512;28;20051;-59
2023/03/05 09:53:17;;;;;;;5.47;1.00;;;5.80;99.90;;;;;;5071522;28;20429;-59
2023/03/05 09:55:52;;;;;;;4.38;1.00;;;5.80;99.90;;;;;;5087184;28;20123;-60
2023/03/05 09:58:35;;;;;;;3.55;0.93;;;5.70;99.90;;;;;;5073382;28;20502;-60
2023/03/05 10:01:07;;;;;;;6.18;1.00;;;5.80;99.90;;;;;;5073150;28;20068;-59
2023/03/05 10:04:14;;;;;;;7.30;1.20;;;6.10;99.90;;;;;;5068120;28;20040;-60
2023/03/05 10:06:59;;;;;;;7.78;1.20;;;6.40;99.90;;;;;;5067802;28;20542;-60
2023/03/05 10:10:09;;;;;;;4.78;0.90;;;6.60;99.90;;;;;;5064932;28;20515;-60
2023/03/05 10:13:00;;;;;;;4.95;1.27;;;7.00;99.90;;;;;;5078691;28;20592;-60
2023/03/05 10:15:34;;;;;;;6.28;0.85;;;7.30;99.90;;;;;;5066335;28;20032;-61
2023/03/05 10:18:33;;;;;;;5.57;1.17;;;7.50;99.90;;;;;;5079040;28;20139;-60
2023/03/05 10:21:17;;;;;;;6.28;1.20;;;7.60;99.90;;;;;;5062560;28;20554;-62
2023/03/05 10:24:10;;;;;;;7.75;1.27;;;7.80;99.90;;;;;;5060920;28;20072;-62
2023/03/05 10:26:49;;;;;;;8.13;1.60;;;7.90;99.90;;;;;;5082716;28;20122;-60
2023/03/05 10:29:32;;;;;;;7.75;1.35;;;7.80;99.90;;;;;;5077688;28;20124;-61
2023/03/05 10:32:23;;;;;;;8.40;1.20;;;7.90;99.90;;;;;;5062258;28;20044;-61
2023/03/05 10:35:07;;;;;;;4.75;1.25;;;8.10;99.90;;;;;;5062507;28;20492;-61
2023/03/05 10:37:59;;;;;;;4.47;1.00;;;8.20;99.90;;;;;;5066378;28;20037;-59
2023/03/05 10:40:42;;;;;;;7.13;1.20;;;8.40;99.90;;;;;;5064191;28;20611;-61
2023/03/05 10:43:47;;;;;;;4.95;1.00;;;8.50;99.90;;;;;;5073835;28;20499;-61
2023/03/05 10:46:17;;;;;;;10.43;1.92;;;8.50;99.90;;;;;;4993262;28;20530;-60
2023/03/05 10:48:49;;;;;;;7.90;1.15;;;8.40;99.90;;;;;;5047503;28;20040;-60
2023/03/05 10:51:39;;;;;;;8.02;1.75;;;8.50;99.90;;;;;;5065831;28;20040;-60
2023/03/05 10:54:30;;;;;;;14.77;1.63;;;8.50;99.90;;;;;;5066046;28;20033;-60
2023/03/05 10:57:14;;;;;;;9.45;1.67;;;8.40;99.90;;;;;;5081300;28;20052;-58
2023/03/05 10:59:50;;;;;;;11.18;1.52;;;8.30;99.90;;;;;;5081535;28;20309;-61
2023/03/05 11:02:16;;;;;;;7.80;1.50;;;8.20;99.90;;;;;;5083475;28;20120;-60
2023/03/05 11:04:43;;;;;;;8.27;1.42;;;8.20;99.90;;;;;;5071852;28;20052;-60
2023/03/05 11:07:14;;;;;;;9.43;1.55;;;8.50;99.90;;;;;;5067525;28;20036;-61
2023/03/05 11:09:41;;;;;;;10.05;1.52;;;9.00;98.80;;;;;;5075126;28;20125;-61
2023/03/05 11:12:19;;;;;;;11.57;1.38;;;9.20;98.10;;;;;;5077000;28;20089;-60
2023/03/05 11:15:12;;;;;;;6.05;1.23;;;9.10;96.80;;;;;;5082345;28;20089;-61
2023/03/05 11:17:43;;;;;;;5.00;0.95;;;8.70;95.30;;;;;;5080418;28;20051;-62
2023/03/05 11:20:33;;;;;;;8.85;1.10;;;8.20;96.70;;;;;;5080664;28;20039;-59
2023/03/05 11:23:12;;;;;;;4.82;1.10;;;8.00;96.20;;;;;;5085595;28;20035;-61
2023/03/05 11:26:02;;;;;;;10.55;1.42;;;8.20;97.40;;;;;;5073393;28;20044;-62
2023/03/05 11:28:37;;;;;;;7.82;1.45;;;8.60;96.70;;;;;;5073690;28;20554;-62
2023/03/05 11:31:15;;;;;;;6.68;1.25;;;9.00;94.70;;;;;;5082525;28;20119;-61
2023/03/05 11:34:05;;;;;;;9.73;1.92;;;9.30;94.50;;;;;;5074914;28;20036;-61
2023/03/05 11:36:42;;;;;;;8.93;1.30;;;9.70;92.90;;;;;;5069450;28;20036;-61
2023/03/05 11:39:14;;;;;;;4.88;1.00;;;10.00;93.00;;;;;;5078163;28;20628;-62
2023/03/05 11:42:10;;;;;;;6.07;1.00;;;10.20;90.80;;;;;;5063775;28;20037;-60
2023/03/05 11:44:54;;;;;;;6.55;1.10;;;10.20;82.40;;;;;;5070264;28;20075;-62
2023/03/05 11:47:43;;;;;;;8.10;1.52;;;10.00;78.60;;;;;;5072577;28;20549;-62
2023/03/05 11:50:14;;;;;;;4.13;1.10;;;10.10;84.10;;;;;;5059537;28;20044;-61
2023/03/05 11:53:02;;;;;;;11.00;1.30;;;10.00;84.10;;;;;;5084242;28;20044;-67
2023/03/05 11:55:42;;;;;;;6.72;1.20;;;9.60;90.70;;;;;;5077931;28;20039;-61
2023/03/05 11:58:46;;;;;;;11.80;1.35;;;9.30;92.00;;;;;;5064543;28;20171;-61
2023/03/05 12:01:21;;;;;;;10.20;1.00;;;9.10;92.60;;;;;;5073799;28;20044;-61
2023/03/05 12:03:49;;;;;;;8.20;1.38;;;8.80;92.60;;;;;;5073339;28;20024;-59
2023/03/05 12:06:39;;;;;;;9.75;1.95;;;8.80;93.10;;;;;;5063956;28;20044;-63
2023/03/05 12:09:29;;;;;;;5.13;0.90;;;9.10;92.30;;;;;;5072208;28;20828;-62
2023/03/05 12:12:04;;;;;;;5.72;0.98;;;9.60;91.20;;;;;;5078872;28;20042;-62
2023/03/05 12:14:47;;;;;;;4.25;0.95;;;9.70;90.00;;;;;;5077892;28;20075;-63
2023/03/05 12:17:20;;;;;;;3.85;0.95;;;9.40;84.00;;;;;;5079312;28;20044;-61
2023/03/05 12:20:03;;;;;;;4.90;1.00;;;9.00;84.90;;;;;;5066583;28;20036;-61
2023/03/05 12:22:40;;;;;;;8.38;0.93;;;8.70;84.80;;;;;;5070431;28;20529;-62
2023/03/05 12:25:31;;;;;;;6.97;1.00;;;8.60;89.00;;;;;;5073396;28;20046;-62
2023/03/05 12:27:56;;;;;;;5.72;1.00;;;8.40;90.10;;;;;;5080449;28;20039;-59
2023/03/05 12:30:34;;;;;;;5.10;0.93;;;8.10;91.00;;;;;;5082117;28;20387;-61
2023/03/05 12:33:01;;;;;;;5.57;1.08;;;7.80;91.00;;;;;;5079109;28;20533;-60
2023/03/05 12:35:38;;;;;;;4.28;0.90;;;7.60;92.70;;;;;;5080233;28;20036;-61
2023/03/05 12:38:16;;;;;;;3.75;1.15;;;7.50;93.80;;;;;;5083471;28;20505;-61
2023/03/05 12:40:42;;;;;;;8.27;1.00;;;7.50;95.40;;;;;;5064067;28;20032;-61
2023/03/05 12:43:29;;;;;;;5.78;0.95;;;7.50;96.00;;;;;;5063426;28;20557;-59
2023/03/05 12:46:24;;;;;;;6.07;0.95;;;7.40;95.00;;;;;;5063842;28;20415;-61
2023/03/05 12:48:50;;;;;;;6.30;1.13;;;7.20;94.70;;;;;;5063424;28;20173;-61
2023/03/05 12:51:38;;;;;;;8.68;1.10;;;7.20;95.50;;;;;;5063097;28;20124;-61
2023/03/05 12:54:38;;;;;;;8.30;1.10;;;7.30;95.40;;;;;;5069459;28;20051;-61
2023/03/05 12:57:23;;;;;;;5.65;1.20;;;7.30;95.20;;;;;;5067253;28;20055;-61
2023/03/05 12:59:57;;;;;;;9.18;1.30;;;7.50;95.80;;;;;;5070767;28;20039;-62
2023/03/05 13:02:42;;;;;;;7.15;1.67;;;7.80;96.40;;;;;;5073029;28;20197;-61
2023/03/05 13:05:29;;;;;;;7.80;1.20;;;8.20;95.00;;;;;;5070589;28;20044;-61
2023/03/05 13:08:20;;;;;;;8.07;1.10;;;8.50;95.10;;;;;;5079519;28;20044;-61
2023/03/05 13:10:55;;;;;;;8.27;1.00;;;8.50;94.00;;;;;;5078880;28;20255;-62